sensor_id;sensor_type;location;lat;lon;timestamp;P1;durP1;ratioP1;P2;durP2;ratioP2
49828;SDS011;35723;51.194;5.112;2023-09-30T00:00:41;17.83;;;7.93;;
49828;SDS011;35723;51.194;5.112;2023-09-30T00:03:10;17.92;;;8.07;;
49828;SDS011;35723;51.194;5.112;2023-09-30T00:05:37;19.83;;;8.40;;
49828;SDS011;35723;51.194;5.112;2023-09-30T00:08:03;19.58;;;7.65;;
49828;SDS011;35723;51.194;5.112;2023-09-30T00:10:29;18.05;;;7.78;;
49828;SDS011;35723;51.194;5.112;2023-09-30T00:12:55;20.35;;;8.18;;
49828;SDS011;35723;51.194;5.112;2023-09-30T00:15:22;17.23;;;7.78;;
49828;SDS011;35723;51.194;5.112;2023-09-30T00:17:47;18.65;;;8.00;;
49828;SDS011;35723;51.194;5.112;2023-09-30T00:20:13;18.63;;;8.10;;
49828;SDS011;35723;51.194;5.112;2023-09-30T00:22:42;17.30;;;7.55;;
49828;SDS011;35723;51.194;5.112;2023-09-30T00:25:08;18.35;;;8.00;;
49828;SDS011;35723;51.194;5.112;2023-09-30T00:27:33;19.88;;;8.50;;
49828;SDS011;35723;51.194;5.112;2023-09-30T00:29:59;19.10;;;8.52;;
49828;SDS011;35723;51.194;5.112;2023-09-30T00:32:25;21.35;;;8.93;;
49828;SDS011;35723;51.194;5.112;2023-09-30T00:34:50;19.75;;;8.40;;
49828;SDS011;35723;51.194;5.112;2023-09-30T00:37:17;17.30;;;8.20;;
49828;SDS011;35723;51.194;5.112;2023-09-30T00:39:43;19.92;;;8.77;;
49828;SDS011;35723;51.194;5.112;2023-09-30T00:42:10;17.63;;;7.90;;
49828;SDS011;35723;51.194;5.112;2023-09-30T00:44:36;18.38;;;8.10;;
49828;SDS011;35723;51.194;5.112;2023-09-30T00:47:01;19.05;;;8.60;;
49828;SDS011;35723;51.194;5.112;2023-09-30T00:49:27;20.70;;;8.48;;
49828;SDS011;35723;51.194;5.112;2023-09-30T00:51:54;20.90;;;8.60;;
49828;SDS011;35723;51.194;5.112;2023-09-30T00:54:21;17.80;;;8.32;;
49828;SDS011;35723;51.194;5.112;2023-09-30T00:56:49;16.35;;;7.80;;
49828;SDS011;35723;51.194;5.112;2023-09-30T00:59:17;18.20;;;8.15;;
49828;SDS011;35723;51.194;5.112;2023-09-30T01:01:45;18.00;;;7.97;;
49828;SDS011;35723;51.194;5.112;2023-09-30T01:04:11;15.90;;;7.28;;
49828;SDS011;35723;51.194;5.112;2023-09-30T01:06:37;17.80;;;7.82;;
49828;SDS011;35723;51.194;5.112;2023-09-30T01:09:03;20.42;;;8.38;;
49828;SDS011;35723;51.194;5.112;2023-09-30T01:11:29;17.70;;;8.05;;
49828;SDS011;35723;51.194;5.112;2023-09-30T01:13:55;19.48;;;8.15;;
49828;SDS011;35723;51.194;5.112;2023-09-30T01:16:22;18.08;;;8.43;;
49828;SDS011;35723;51.194;5.112;2023-09-30T01:18:48;18.27;;;8.15;;
49828;SDS011;35723;51.194;5.112;2023-09-30T01:21:14;19.55;;;8.57;;
49828;SDS011;35723;51.194;5.112;2023-09-30T01:23:40;18.98;;;8.25;;
49828;SDS011;35723;51.194;5.112;2023-09-30T01:26:10;19.85;;;8.45;;
49828;SDS011;35723;51.194;5.112;2023-09-30T01:28:40;19.55;;;8.57;;
49828;SDS011;35723;51.194;5.112;2023-09-30T01:31:06;17.30;;;7.97;;
49828;SDS011;35723;51.194;5.112;2023-09-30T01:33:32;23.02;;;9.50;;
49828;SDS011;35723;51.194;5.112;2023-09-30T01:35:58;20.30;;;9.32;;
49828;SDS011;35723;51.194;5.112;2023-09-30T01:38:27;22.30;;;9.93;;
49828;SDS011;35723;51.194;5.112;2023-09-30T01:40:52;20.77;;;9.60;;
49828;SDS011;35723;51.194;5.112;2023-09-30T01:43:19;19.23;;;9.75;;
49828;SDS011;35723;51.194;5.112;2023-09-30T01:45:44;20.05;;;9.40;;
49828;SDS011;35723;51.194;5.112;2023-09-30T01:48:10;20.90;;;9.80;;
49828;SDS011;35723;51.194;5.112;2023-09-30T01:50:37;21.52;;;9.13;;
49828;SDS011;35723;51.194;5.112;2023-09-30T01:53:06;20.48;;;9.60;;
49828;SDS011;35723;51.194;5.112;2023-09-30T01:55:38;20.73;;;10.10;;
49828;SDS011;35723;51.194;5.112;2023-09-30T01:58:03;23.75;;;9.63;;
49828;SDS011;35723;51.194;5.112;2023-09-30T02:00:29;21.27;;;10.05;;
49828;SDS011;35723;51.194;5.112;2023-09-30T02:02:55;20.92;;;9.70;;
49828;SDS011;35723;51.194;5.112;2023-09-30T02:05:22;24.85;;;11.07;;
49828;SDS011;35723;51.194;5.112;2023-09-30T02:07:48;21.77;;;9.32;;
49828;SDS011;35723;51.194;5.112;2023-09-30T02:10:15;22.63;;;9.70;;
49828;SDS011;35723;51.194;5.112;2023-09-30T02:12:43;20.77;;;9.77;;
49828;SDS011;35723;51.194;5.112;2023-09-30T02:15:09;20.80;;;9.93;;
49828;SDS011;35723;51.194;5.112;2023-09-30T02:17:36;21.92;;;10.10;;
49828;SDS011;35723;51.194;5.112;2023-09-30T02:20:02;23.35;;;10.05;;
49828;SDS011;35723;51.194;5.112;2023-09-30T02:22:32;21.95;;;10.07;;
49828;SDS011;35723;51.194;5.112;2023-09-30T02:24:58;21.08;;;10.25;;
49828;SDS011;35723;51.194;5.112;2023-09-30T02:27:23;21.95;;;10.00;;
49828;SDS011;35723;51.194;5.112;2023-09-30T02:29:49;22.52;;;10.70;;
49828;SDS011;35723;51.194;5.112;2023-09-30T02:32:15;24.42;;;10.40;;
49828;SDS011;35723;51.194;5.112;2023-09-30T02:34:40;21.23;;;10.68;;
49828;SDS011;35723;51.194;5.112;2023-09-30T02:37:07;23.17;;;10.55;;
49828;SDS011;35723;51.194;5.112;2023-09-30T02:39:35;23.15;;;10.68;;
49828;SDS011;35723;51.194;5.112;2023-09-30T02:42:02;24.58;;;10.80;;
49828;SDS011;35723;51.194;5.112;2023-09-30T02:44:27;24.05;;;10.43;;
49828;SDS011;35723;51.194;5.112;2023-09-30T02:46:53;22.75;;;11.40;;
49828;SDS011;35723;51.194;5.112;2023-09-30T02:49:19;24.23;;;11.45;;
49828;SDS011;35723;51.194;5.112;2023-09-30T02:51:46;23.00;;;10.70;;
49828;SDS011;35723;51.194;5.112;2023-09-30T02:54:11;24.52;;;11.25;;
49828;SDS011;35723;51.194;5.112;2023-09-30T02:56:40;24.90;;;11.15;;
49828;SDS011;35723;51.194;5.112;2023-09-30T02:59:06;23.95;;;10.60;;
49828;SDS011;35723;51.194;5.112;2023-09-30T03:01:32;21.90;;;11.65;;
49828;SDS011;35723;51.194;5.112;2023-09-30T03:03:58;19.58;;;10.10;;
49828;SDS011;35723;51.194;5.112;2023-09-30T03:06:24;24.35;;;10.88;;
49828;SDS011;35723;51.194;5.112;2023-09-30T03:08:49;24.23;;;11.25;;
49828;SDS011;35723;51.194;5.112;2023-09-30T03:11:16;22.77;;;10.90;;
49828;SDS011;35723;51.194;5.112;2023-09-30T03:13:44;23.65;;;11.32;;
49828;SDS011;35723;51.194;5.112;2023-09-30T03:16:10;23.38;;;11.13;;
49828;SDS011;35723;51.194;5.112;2023-09-30T03:18:36;25.35;;;11.40;;
49828;SDS011;35723;51.194;5.112;2023-09-30T03:21:02;22.90;;;10.07;;
49828;SDS011;35723;51.194;5.112;2023-09-30T03:23:37;24.63;;;11.50;;
49828;SDS011;35723;51.194;5.112;2023-09-30T03:26:05;23.80;;;11.90;;
49828;SDS011;35723;51.194;5.112;2023-09-30T03:28:35;26.75;;;13.00;;
49828;SDS011;35723;51.194;5.112;2023-09-30T03:31:02;23.73;;;11.88;;
49828;SDS011;35723;51.194;5.112;2023-09-30T03:33:29;25.10;;;12.68;;
49828;SDS011;35723;51.194;5.112;2023-09-30T03:35:57;25.13;;;12.25;;
49828;SDS011;35723;51.194;5.112;2023-09-30T03:38:23;25.85;;;11.95;;
49828;SDS011;35723;51.194;5.112;2023-09-30T03:40:50;23.85;;;10.95;;
49828;SDS011;35723;51.194;5.112;2023-09-30T03:43:18;24.52;;;11.43;;
49828;SDS011;35723;51.194;5.112;2023-09-30T03:45:44;26.10;;;11.45;;
49828;SDS011;35723;51.194;5.112;2023-09-30T03:48:10;24.40;;;12.07;;
49828;SDS011;35723;51.194;5.112;2023-09-30T03:50:36;23.10;;;11.18;;
49828;SDS011;35723;51.194;5.112;2023-09-30T03:53:03;21.83;;;10.75;;
49828;SDS011;35723;51.194;5.112;2023-09-30T03:55:30;22.63;;;11.23;;
49828;SDS011;35723;51.194;5.112;2023-09-30T03:57:57;24.02;;;11.38;;
49828;SDS011;35723;51.194;5.112;2023-09-30T04:00:22;24.08;;;10.70;;
49828;SDS011;35723;51.194;5.112;2023-09-30T04:02:49;22.02;;;11.10;;
49828;SDS011;35723;51.194;5.112;2023-09-30T04:05:19;22.38;;;11.13;;
49828;SDS011;35723;51.194;5.112;2023-09-30T04:07:49;26.00;;;11.43;;
49828;SDS011;35723;51.194;5.112;2023-09-30T04:10:15;20.70;;;10.48;;
49828;SDS011;35723;51.194;5.112;2023-09-30T04:12:41;22.02;;;10.52;;
49828;SDS011;35723;51.194;5.112;2023-09-30T04:15:07;22.08;;;10.63;;
49828;SDS011;35723;51.194;5.112;2023-09-30T04:17:36;23.02;;;10.18;;
49828;SDS011;35723;51.194;5.112;2023-09-30T04:20:03;21.90;;;10.60;;
49828;SDS011;35723;51.194;5.112;2023-09-30T04:22:36;28.90;;;10.73;;
49828;SDS011;35723;51.194;5.112;2023-09-30T04:25:02;21.95;;;10.07;;
49828;SDS011;35723;51.194;5.112;2023-09-30T04:27:33;22.50;;;10.68;;
49828;SDS011;35723;51.194;5.112;2023-09-30T04:29:59;21.77;;;10.45;;
49828;SDS011;35723;51.194;5.112;2023-09-30T04:32:25;22.63;;;11.15;;
49828;SDS011;35723;51.194;5.112;2023-09-30T04:34:52;22.35;;;11.10;;
49828;SDS011;35723;51.194;5.112;2023-09-30T04:37:18;21.45;;;10.80;;
49828;SDS011;35723;51.194;5.112;2023-09-30T04:39:44;26.30;;;11.32;;
49828;SDS011;35723;51.194;5.112;2023-09-30T04:42:09;21.30;;;10.45;;
49828;SDS011;35723;51.194;5.112;2023-09-30T04:44:36;22.85;;;10.55;;
49828;SDS011;35723;51.194;5.112;2023-09-30T04:47:03;21.33;;;10.45;;
49828;SDS011;35723;51.194;5.112;2023-09-30T04:49:29;21.48;;;10.40;;
49828;SDS011;35723;51.194;5.112;2023-09-30T04:51:55;26.60;;;10.90;;
49828;SDS011;35723;51.194;5.112;2023-09-30T04:54:21;22.83;;;10.90;;
49828;SDS011;35723;51.194;5.112;2023-09-30T04:56:47;21.95;;;11.07;;
49828;SDS011;35723;51.194;5.112;2023-09-30T04:59:13;24.63;;;11.50;;
49828;SDS011;35723;51.194;5.112;2023-09-30T05:01:39;22.73;;;10.73;;
49828;SDS011;35723;51.194;5.112;2023-09-30T05:04:04;23.05;;;10.90;;
49828;SDS011;35723;51.194;5.112;2023-09-30T05:06:30;24.52;;;11.95;;
49828;SDS011;35723;51.194;5.112;2023-09-30T05:08:57;22.60;;;10.73;;
49828;SDS011;35723;51.194;5.112;2023-09-30T05:11:24;23.15;;;11.07;;
49828;SDS011;35723;51.194;5.112;2023-09-30T05:13:49;30.63;;;12.00;;
49828;SDS011;35723;51.194;5.112;2023-09-30T05:16:16;22.42;;;10.98;;
49828;SDS011;35723;51.194;5.112;2023-09-30T05:18:42;23.80;;;11.52;;
49828;SDS011;35723;51.194;5.112;2023-09-30T05:21:08;24.08;;;11.32;;
49828;SDS011;35723;51.194;5.112;2023-09-30T05:23:35;21.83;;;11.02;;
49828;SDS011;35723;51.194;5.112;2023-09-30T05:26:02;21.80;;;10.18;;
49828;SDS011;35723;51.194;5.112;2023-09-30T05:28:27;22.80;;;9.70;;
49828;SDS011;35723;51.194;5.112;2023-09-30T05:30:53;21.35;;;10.20;;
49828;SDS011;35723;51.194;5.112;2023-09-30T05:33:19;20.77;;;10.07;;
49828;SDS011;35723;51.194;5.112;2023-09-30T05:35:45;22.27;;;10.05;;
49828;SDS011;35723;51.194;5.112;2023-09-30T05:38:11;20.73;;;9.55;;
49828;SDS011;35723;51.194;5.112;2023-09-30T05:40:38;20.42;;;9.95;;
49828;SDS011;35723;51.194;5.112;2023-09-30T05:43:03;21.05;;;9.90;;
49828;SDS011;35723;51.194;5.112;2023-09-30T05:45:31;21.80;;;10.07;;
49828;SDS011;35723;51.194;5.112;2023-09-30T05:48:04;22.27;;;10.05;;
49828;SDS011;35723;51.194;5.112;2023-09-30T05:50:32;18.77;;;9.15;;
49828;SDS011;35723;51.194;5.112;2023-09-30T05:53:01;21.20;;;9.70;;
49828;SDS011;35723;51.194;5.112;2023-09-30T05:55:27;21.23;;;9.73;;
49828;SDS011;35723;51.194;5.112;2023-09-30T05:57:52;23.70;;;10.15;;
49828;SDS011;35723;51.194;5.112;2023-09-30T06:00:19;23.88;;;9.88;;
49828;SDS011;35723;51.194;5.112;2023-09-30T06:02:55;22.73;;;10.25;;
49828;SDS011;35723;51.194;5.112;2023-09-30T06:05:24;23.92;;;9.93;;
49828;SDS011;35723;51.194;5.112;2023-09-30T06:07:55;23.48;;;9.27;;
49828;SDS011;35723;51.194;5.112;2023-09-30T06:10:21;27.63;;;10.50;;
49828;SDS011;35723;51.194;5.112;2023-09-30T06:12:48;22.65;;;11.35;;
49828;SDS011;35723;51.194;5.112;2023-09-30T06:15:20;25.25;;;11.50;;
49828;SDS011;35723;51.194;5.112;2023-09-30T06:17:51;23.23;;;10.85;;
49828;SDS011;35723;51.194;5.112;2023-09-30T06:20:18;26.08;;;11.45;;
49828;SDS011;35723;51.194;5.112;2023-09-30T06:22:44;24.48;;;11.65;;
49828;SDS011;35723;51.194;5.112;2023-09-30T06:25:11;23.90;;;10.90;;
49828;SDS011;35723;51.194;5.112;2023-09-30T06:27:38;20.75;;;10.77;;
49828;SDS011;35723;51.194;5.112;2023-09-30T06:30:04;23.55;;;10.55;;
49828;SDS011;35723;51.194;5.112;2023-09-30T06:32:30;24.83;;;10.82;;
49828;SDS011;35723;51.194;5.112;2023-09-30T06:34:56;26.92;;;11.15;;
49828;SDS011;35723;51.194;5.112;2023-09-30T06:37:22;24.75;;;10.85;;
49828;SDS011;35723;51.194;5.112;2023-09-30T06:39:47;25.20;;;11.55;;
49828;SDS011;35723;51.194;5.112;2023-09-30T06:42:13;23.17;;;10.98;;
49828;SDS011;35723;51.194;5.112;2023-09-30T06:44:39;23.45;;;11.35;;
49828;SDS011;35723;51.194;5.112;2023-09-30T06:47:05;25.92;;;11.80;;
49828;SDS011;35723;51.194;5.112;2023-09-30T06:49:33;31.08;;;12.90;;
49828;SDS011;35723;51.194;5.112;2023-09-30T06:51:59;29.27;;;12.07;;
49828;SDS011;35723;51.194;5.112;2023-09-30T06:54:25;27.65;;;12.18;;
49828;SDS011;35723;51.194;5.112;2023-09-30T06:56:50;27.88;;;12.05;;
49828;SDS011;35723;51.194;5.112;2023-09-30T06:59:16;28.67;;;12.25;;
49828;SDS011;35723;51.194;5.112;2023-09-30T07:01:42;26.70;;;11.95;;
49828;SDS011;35723;51.194;5.112;2023-09-30T07:04:09;25.55;;;12.70;;
49828;SDS011;35723;51.194;5.112;2023-09-30T07:06:36;28.10;;;12.57;;
49828;SDS011;35723;51.194;5.112;2023-09-30T07:09:02;30.85;;;13.40;;
49828;SDS011;35723;51.194;5.112;2023-09-30T07:11:29;25.08;;;12.98;;
49828;SDS011;35723;51.194;5.112;2023-09-30T07:13:58;29.08;;;12.88;;
49828;SDS011;35723;51.194;5.112;2023-09-30T07:16:24;27.42;;;12.23;;
49828;SDS011;35723;51.194;5.112;2023-09-30T07:18:50;26.45;;;12.85;;
49828;SDS011;35723;51.194;5.112;2023-09-30T07:21:16;26.17;;;12.25;;
49828;SDS011;35723;51.194;5.112;2023-09-30T07:23:42;27.17;;;12.52;;
49828;SDS011;35723;51.194;5.112;2023-09-30T07:26:07;28.77;;;13.00;;
49828;SDS011;35723;51.194;5.112;2023-09-30T07:28:33;25.65;;;12.27;;
49828;SDS011;35723;51.194;5.112;2023-09-30T07:30:59;29.38;;;12.95;;
49828;SDS011;35723;51.194;5.112;2023-09-30T07:33:25;29.05;;;13.00;;
49828;SDS011;35723;51.194;5.112;2023-09-30T07:35:51;29.23;;;12.80;;
49828;SDS011;35723;51.194;5.112;2023-09-30T07:38:17;31.15;;;13.13;;
49828;SDS011;35723;51.194;5.112;2023-09-30T07:40:43;29.85;;;12.77;;
49828;SDS011;35723;51.194;5.112;2023-09-30T07:43:08;27.88;;;12.18;;
49828;SDS011;35723;51.194;5.112;2023-09-30T07:45:34;31.05;;;12.95;;
49828;SDS011;35723;51.194;5.112;2023-09-30T07:48:00;31.98;;;12.65;;
49828;SDS011;35723;51.194;5.112;2023-09-30T07:50:29;35.13;;;12.40;;
49828;SDS011;35723;51.194;5.112;2023-09-30T07:52:55;32.28;;;12.32;;
49828;SDS011;35723;51.194;5.112;2023-09-30T07:55:20;32.58;;;12.55;;
49828;SDS011;35723;51.194;5.112;2023-09-30T07:57:46;30.50;;;12.35;;
49828;SDS011;35723;51.194;5.112;2023-09-30T08:00:12;35.13;;;11.80;;
49828;SDS011;35723;51.194;5.112;2023-09-30T08:02:41;34.03;;;12.30;;
49828;SDS011;35723;51.194;5.112;2023-09-30T08:05:07;28.17;;;11.85;;
49828;SDS011;35723;51.194;5.112;2023-09-30T08:07:33;30.42;;;12.02;;
49828;SDS011;35723;51.194;5.112;2023-09-30T08:09:59;29.08;;;11.40;;
49828;SDS011;35723;51.194;5.112;2023-09-30T08:12:25;27.75;;;11.52;;
49828;SDS011;35723;51.194;5.112;2023-09-30T08:14:51;32.90;;;11.70;;
49828;SDS011;35723;51.194;5.112;2023-09-30T08:17:17;31.63;;;12.00;;
49828;SDS011;35723;51.194;5.112;2023-09-30T08:19:43;38.15;;;12.68;;
49828;SDS011;35723;51.194;5.112;2023-09-30T08:22:09;31.70;;;11.65;;
49828;SDS011;35723;51.194;5.112;2023-09-30T08:24:35;32.92;;;12.00;;
49828;SDS011;35723;51.194;5.112;2023-09-30T08:27:01;31.33;;;12.15;;
49828;SDS011;35723;51.194;5.112;2023-09-30T08:29:26;38.25;;;12.13;;
49828;SDS011;35723;51.194;5.112;2023-09-30T08:31:52;31.80;;;12.57;;
49828;SDS011;35723;51.194;5.112;2023-09-30T08:34:18;33.28;;;12.10;;
49828;SDS011;35723;51.194;5.112;2023-09-30T08:36:46;31.80;;;11.85;;
49828;SDS011;35723;51.194;5.112;2023-09-30T08:39:11;32.60;;;12.57;;
49828;SDS011;35723;51.194;5.112;2023-09-30T08:41:37;28.80;;;11.43;;
49828;SDS011;35723;51.194;5.112;2023-09-30T08:44:03;33.97;;;11.95;;
49828;SDS011;35723;51.194;5.112;2023-09-30T08:46:30;31.48;;;11.38;;
49828;SDS011;35723;51.194;5.112;2023-09-30T08:49:00;29.33;;;11.50;;
49828;SDS011;35723;51.194;5.112;2023-09-30T08:51:31;37.42;;;11.52;;
49828;SDS011;35723;51.194;5.112;2023-09-30T08:53:57;31.20;;;10.65;;
49828;SDS011;35723;51.194;5.112;2023-09-30T08:56:26;31.10;;;10.70;;
49828;SDS011;35723;51.194;5.112;2023-09-30T08:58:57;37.63;;;10.70;;
49828;SDS011;35723;51.194;5.112;2023-09-30T09:01:24;35.05;;;10.23;;
49828;SDS011;35723;51.194;5.112;2023-09-30T09:03:51;27.40;;;9.27;;
49828;SDS011;35723;51.194;5.112;2023-09-30T09:06:18;26.95;;;8.65;;
49828;SDS011;35723;51.194;5.112;2023-09-30T09:08:47;29.60;;;9.18;;
49828;SDS011;35723;51.194;5.112;2023-09-30T09:11:14;28.25;;;9.40;;
49828;SDS011;35723;51.194;5.112;2023-09-30T09:13:47;27.35;;;9.00;;
49828;SDS011;35723;51.194;5.112;2023-09-30T09:16:15;29.75;;;8.48;;
49828;SDS011;35723;51.194;5.112;2023-09-30T09:18:43;29.67;;;8.52;;
49828;SDS011;35723;51.194;5.112;2023-09-30T09:23:39;26.48;;;8.15;;
49828;SDS011;35723;51.194;5.112;2023-09-30T09:26:12;24.70;;;8.00;;
49828;SDS011;35723;51.194;5.112;2023-09-30T09:28:56;29.35;;;7.88;;
49828;SDS011;35723;51.194;5.112;2023-09-30T09:31:26;25.48;;;7.20;;
49828;SDS011;35723;51.194;5.112;2023-09-30T09:33:53;25.63;;;7.18;;
49828;SDS011;35723;51.194;5.112;2023-09-30T09:36:19;26.67;;;7.25;;
49828;SDS011;35723;51.194;5.112;2023-09-30T09:38:46;26.90;;;7.78;;
49828;SDS011;35723;51.194;5.112;2023-09-30T09:41:18;22.52;;;7.20;;
49828;SDS011;35723;51.194;5.112;2023-09-30T09:43:44;25.15;;;7.13;;
49828;SDS011;35723;51.194;5.112;2023-09-30T09:46:13;23.52;;;7.43;;
49828;SDS011;35723;51.194;5.112;2023-09-30T09:48:39;24.35;;;7.03;;
49828;SDS011;35723;51.194;5.112;2023-09-30T09:51:05;24.65;;;6.72;;
49828;SDS011;35723;51.194;5.112;2023-09-30T09:53:34;19.63;;;6.25;;
49828;SDS011;35723;51.194;5.112;2023-09-30T09:56:03;25.80;;;6.35;;
49828;SDS011;35723;51.194;5.112;2023-09-30T09:58:33;20.63;;;5.55;;
49828;SDS011;35723;51.194;5.112;2023-09-30T10:01:01;21.80;;;6.05;;
49828;SDS011;35723;51.194;5.112;2023-09-30T10:03:27;21.65;;;6.00;;
49828;SDS011;35723;51.194;5.112;2023-09-30T10:05:53;19.13;;;6.28;;
49828;SDS011;35723;51.194;5.112;2023-09-30T10:08:20;21.92;;;6.63;;
49828;SDS011;35723;51.194;5.112;2023-09-30T10:10:53;23.17;;;6.95;;
49828;SDS011;35723;51.194;5.112;2023-09-30T10:19:08;18.05;;;5.80;;
49828;SDS011;35723;51.194;5.112;2023-09-30T10:21:37;22.20;;;5.57;;
49828;SDS011;35723;51.194;5.112;2023-09-30T10:27:14;23.35;;;5.70;;
49828;SDS011;35723;51.194;5.112;2023-09-30T10:35:22;18.15;;;4.72;;
49828;SDS011;35723;51.194;5.112;2023-09-30T10:40:50;19.13;;;4.55;;
49828;SDS011;35723;51.194;5.112;2023-09-30T10:43:49;16.23;;;4.55;;
49828;SDS011;35723;51.194;5.112;2023-09-30T10:48:52;14.77;;;4.43;;
49828;SDS011;35723;51.194;5.112;2023-09-30T10:51:19;21.65;;;5.18;;
49828;SDS011;35723;51.194;5.112;2023-09-30T10:53:54;13.38;;;4.20;;
49828;SDS011;35723;51.194;5.112;2023-09-30T10:56:31;14.57;;;4.32;;
49828;SDS011;35723;51.194;5.112;2023-09-30T10:58:58;19.23;;;4.57;;
49828;SDS011;35723;51.194;5.112;2023-09-30T11:01:25;18.60;;;4.60;;
49828;SDS011;35723;51.194;5.112;2023-09-30T11:03:58;14.60;;;4.28;;
49828;SDS011;35723;51.194;5.112;2023-09-30T11:06:28;14.55;;;4.15;;
49828;SDS011;35723;51.194;5.112;2023-09-30T11:08:55;16.42;;;4.15;;
49828;SDS011;35723;51.194;5.112;2023-09-30T11:11:38;13.45;;;4.32;;
49828;SDS011;35723;51.194;5.112;2023-09-30T11:16:51;14.30;;;4.10;;
49828;SDS011;35723;51.194;5.112;2023-09-30T11:19:18;12.18;;;3.90;;
49828;SDS011;35723;51.194;5.112;2023-09-30T11:21:54;16.52;;;4.10;;
49828;SDS011;35723;51.194;5.112;2023-09-30T11:24:20;16.67;;;4.50;;
49828;SDS011;35723;51.194;5.112;2023-09-30T11:26:46;14.95;;;4.15;;
49828;SDS011;35723;51.194;5.112;2023-09-30T11:29:16;16.35;;;3.88;;
49828;SDS011;35723;51.194;5.112;2023-09-30T11:31:43;17.23;;;4.88;;
49828;SDS011;35723;51.194;5.112;2023-09-30T11:34:11;14.95;;;3.90;;
49828;SDS011;35723;51.194;5.112;2023-09-30T11:36:38;17.35;;;4.20;;
49828;SDS011;35723;51.194;5.112;2023-09-30T11:39:08;13.98;;;3.75;;
49828;SDS011;35723;51.194;5.112;2023-09-30T11:41:40;19.52;;;4.05;;
49828;SDS011;35723;51.194;5.112;2023-09-30T11:44:09;13.98;;;3.95;;
49828;SDS011;35723;51.194;5.112;2023-09-30T11:49:34;14.57;;;3.88;;
49828;SDS011;35723;51.194;5.112;2023-09-30T11:52:02;15.38;;;3.72;;
49828;SDS011;35723;51.194;5.112;2023-09-30T11:54:32;15.65;;;3.72;;
49828;SDS011;35723;51.194;5.112;2023-09-30T11:57:00;11.50;;;3.83;;
49828;SDS011;35723;51.194;5.112;2023-09-30T11:59:27;13.70;;;3.88;;
49828;SDS011;35723;51.194;5.112;2023-09-30T12:01:52;17.77;;;4.35;;
49828;SDS011;35723;51.194;5.112;2023-09-30T12:04:19;16.05;;;3.70;;
49828;SDS011;35723;51.194;5.112;2023-09-30T12:06:48;17.50;;;4.10;;
49828;SDS011;35723;51.194;5.112;2023-09-30T12:09:15;14.88;;;4.30;;
49828;SDS011;35723;51.194;5.112;2023-09-30T12:11:42;14.23;;;3.90;;
49828;SDS011;35723;51.194;5.112;2023-09-30T12:14:12;14.13;;;3.85;;
49828;SDS011;35723;51.194;5.112;2023-09-30T12:16:39;14.70;;;3.95;;
49828;SDS011;35723;51.194;5.112;2023-09-30T12:19:04;15.25;;;4.07;;
49828;SDS011;35723;51.194;5.112;2023-09-30T12:21:33;11.18;;;3.38;;
49828;SDS011;35723;51.194;5.112;2023-09-30T12:24:00;13.73;;;4.00;;
49828;SDS011;35723;51.194;5.112;2023-09-30T12:26:26;13.80;;;4.15;;
49828;SDS011;35723;51.194;5.112;2023-09-30T12:28:52;15.98;;;3.95;;
49828;SDS011;35723;51.194;5.112;2023-09-30T12:31:18;11.93;;;3.38;;
49828;SDS011;35723;51.194;5.112;2023-09-30T12:33:45;13.25;;;3.65;;
49828;SDS011;35723;51.194;5.112;2023-09-30T12:36:15;10.80;;;3.58;;
49828;SDS011;35723;51.194;5.112;2023-09-30T12:38:41;14.15;;;4.00;;
49828;SDS011;35723;51.194;5.112;2023-09-30T12:41:07;11.63;;;3.78;;
49828;SDS011;35723;51.194;5.112;2023-09-30T12:43:33;14.95;;;3.72;;
49828;SDS011;35723;51.194;5.112;2023-09-30T12:45:59;13.60;;;3.75;;
49828;SDS011;35723;51.194;5.112;2023-09-30T12:48:24;16.65;;;4.15;;
49828;SDS011;35723;51.194;5.112;2023-09-30T12:50:50;17.33;;;4.13;;
49828;SDS011;35723;51.194;5.112;2023-09-30T12:53:16;14.27;;;3.80;;
49828;SDS011;35723;51.194;5.112;2023-09-30T12:55:41;14.88;;;3.65;;
49828;SDS011;35723;51.194;5.112;2023-09-30T12:58:08;12.63;;;3.67;;
49828;SDS011;35723;51.194;5.112;2023-09-30T13:00:34;12.43;;;3.75;;
49828;SDS011;35723;51.194;5.112;2023-09-30T13:03:01;11.25;;;3.38;;
49828;SDS011;35723;51.194;5.112;2023-09-30T13:05:27;11.88;;;3.67;;
49828;SDS011;35723;51.194;5.112;2023-09-30T13:07:56;12.25;;;3.75;;
49828;SDS011;35723;51.194;5.112;2023-09-30T13:10:22;12.50;;;3.45;;
49828;SDS011;35723;51.194;5.112;2023-09-30T13:12:48;13.50;;;3.90;;
49828;SDS011;35723;51.194;5.112;2023-09-30T13:15:15;12.70;;;3.70;;
49828;SDS011;35723;51.194;5.112;2023-09-30T13:17:42;10.88;;;3.50;;
49828;SDS011;35723;51.194;5.112;2023-09-30T13:20:08;15.88;;;4.00;;
49828;SDS011;35723;51.194;5.112;2023-09-30T13:22:36;12.32;;;3.65;;
49828;SDS011;35723;51.194;5.112;2023-09-30T13:25:05;13.13;;;3.60;;
49828;SDS011;35723;51.194;5.112;2023-09-30T13:27:33;10.88;;;3.40;;
49828;SDS011;35723;51.194;5.112;2023-09-30T13:29:59;11.77;;;3.83;;
49828;SDS011;35723;51.194;5.112;2023-09-30T13:32:26;14.20;;;3.92;;
49828;SDS011;35723;51.194;5.112;2023-09-30T13:34:52;12.80;;;3.72;;
49828;SDS011;35723;51.194;5.112;2023-09-30T13:37:17;12.80;;;3.60;;
49828;SDS011;35723;51.194;5.112;2023-09-30T13:39:43;13.50;;;4.47;;
49828;SDS011;35723;51.194;5.112;2023-09-30T13:42:09;14.15;;;4.50;;
49828;SDS011;35723;51.194;5.112;2023-09-30T13:44:35;15.48;;;4.55;;
49828;SDS011;35723;51.194;5.112;2023-09-30T13:47:01;13.15;;;4.53;;
49828;SDS011;35723;51.194;5.112;2023-09-30T13:49:28;16.88;;;4.65;;
49828;SDS011;35723;51.194;5.112;2023-09-30T13:51:55;14.95;;;4.43;;
49828;SDS011;35723;51.194;5.112;2023-09-30T13:54:21;14.48;;;4.25;;
49828;SDS011;35723;51.194;5.112;2023-09-30T13:56:46;16.30;;;4.68;;
49828;SDS011;35723;51.194;5.112;2023-09-30T13:59:12;15.30;;;4.47;;
49828;SDS011;35723;51.194;5.112;2023-09-30T14:01:38;12.68;;;4.43;;
49828;SDS011;35723;51.194;5.112;2023-09-30T14:04:06;15.57;;;4.65;;
49828;SDS011;35723;51.194;5.112;2023-09-30T14:06:32;14.32;;;4.70;;
49828;SDS011;35723;51.194;5.112;2023-09-30T14:08:58;13.35;;;4.65;;
49828;SDS011;35723;51.194;5.112;2023-09-30T14:11:24;12.38;;;5.05;;
49828;SDS011;35723;51.194;5.112;2023-09-30T14:13:50;14.95;;;4.95;;
49828;SDS011;35723;51.194;5.112;2023-09-30T14:16:15;14.90;;;4.75;;
49828;SDS011;35723;51.194;5.112;2023-09-30T14:18:41;13.82;;;4.60;;
49828;SDS011;35723;51.194;5.112;2023-09-30T14:21:07;13.52;;;4.90;;
49828;SDS011;35723;51.194;5.112;2023-09-30T14:23:33;14.35;;;4.97;;
49828;SDS011;35723;51.194;5.112;2023-09-30T14:25:59;14.27;;;4.78;;
49828;SDS011;35723;51.194;5.112;2023-09-30T14:28:25;13.50;;;4.82;;
49828;SDS011;35723;51.194;5.112;2023-09-30T14:30:51;15.07;;;4.72;;
49828;SDS011;35723;51.194;5.112;2023-09-30T14:33:17;14.70;;;4.30;;
49828;SDS011;35723;51.194;5.112;2023-09-30T14:35:44;14.13;;;4.30;;
49828;SDS011;35723;51.194;5.112;2023-09-30T14:38:10;13.43;;;4.22;;
49828;SDS011;35723;51.194;5.112;2023-09-30T14:40:37;11.38;;;3.67;;
49828;SDS011;35723;51.194;5.112;2023-09-30T14:43:06;12.05;;;3.42;;
49828;SDS011;35723;51.194;5.112;2023-09-30T14:45:41;14.20;;;3.58;;
49828;SDS011;35723;51.194;5.112;2023-09-30T14:48:07;12.32;;;3.75;;
49828;SDS011;35723;51.194;5.112;2023-09-30T14:50:36;13.02;;;3.78;;
49828;SDS011;35723;51.194;5.112;2023-09-30T14:53:02;12.45;;;4.05;;
49828;SDS011;35723;51.194;5.112;2023-09-30T14:55:30;12.77;;;4.13;;